createdAt,value
2022-10-30T00:01:26.843Z,15.20
2022-10-30T00:03:55.803Z,15.30
2022-10-30T00:06:24.089Z,15.20
2022-10-30T00:08:53.143Z,15.20
2022-10-30T00:11:21.898Z,15.20
2022-10-30T00:13:53.441Z,15.20
2022-10-30T00:16:21.941Z,15.10
2022-10-30T00:18:51.711Z,15.10
2022-10-30T00:21:25.230Z,15.10
2022-10-30T00:23:55.528Z,15.00
2022-10-30T00:26:25.064Z,15.00
2022-10-30T00:28:56.096Z,15.00
2022-10-30T00:31:24.396Z,15.10
2022-10-30T00:33:55.608Z,15.10
2022-10-30T00:36:25.053Z,15.10
2022-10-30T00:38:53.450Z,15.10
2022-10-30T00:41:24.181Z,15.00
2022-10-30T00:43:54.683Z,15.10
2022-10-30T00:46:29.603Z,15.20
2022-10-30T00:49:01.927Z,15.20
2022-10-30T00:51:31.724Z,15.20
2022-10-30T00:54:01.978Z,15.30
2022-10-30T00:56:31.229Z,15.30
2022-10-30T00:59:03.952Z,15.30
2022-10-30T01:01:38.072Z,15.40
2022-10-30T01:04:09.660Z,15.40
2022-10-30T01:06:43.084Z,15.40
2022-10-30T01:09:11.533Z,15.40
2022-10-30T01:11:40.101Z,15.30
2022-10-30T01:14:11.306Z,15.30
2022-10-30T01:16:52.384Z,15.20
2022-10-30T01:19:30.915Z,15.20
2022-10-30T01:22:15.076Z,15.20
2022-10-30T01:24:59.300Z,15.10
2022-10-30T01:27:39.829Z,15.20
2022-10-30T01:30:31.923Z,15.10
2022-10-30T01:33:14.920Z,15.10
2022-10-30T01:35:49.734Z,15.10
2022-10-30T01:38:22.974Z,15.10
2022-10-30T01:40:51.749Z,15.10
2022-10-30T01:43:33.743Z,15.00
2022-10-30T01:46:35.091Z,15.00
2022-10-30T01:49:17.955Z,15.00
2022-10-30T01:51:56.249Z,14.90
2022-10-30T01:54:34.014Z,14.80
2022-10-30T01:57:09.044Z,14.80
2022-10-30T01:59:44.597Z,14.80
2022-10-30T02:02:15.428Z,14.90
2022-10-30T02:04:44.012Z,14.90
2022-10-30T02:07:12.828Z,14.90
2022-10-30T02:09:41.806Z,14.80
2022-10-30T02:12:11.015Z,14.80
2022-10-30T02:14:44.200Z,14.90
2022-10-30T02:17:14.778Z,14.80
2022-10-30T02:19:43.057Z,14.70
2022-10-30T02:22:15.958Z,14.70
2022-10-30T02:24:44.694Z,14.70
2022-10-30T02:27:14.987Z,14.70
2022-10-30T02:29:43.489Z,14.70
2022-10-30T02:32:13.822Z,14.60
2022-10-30T02:34:43.837Z,14.70
2022-10-30T02:37:15.357Z,14.70
2022-10-30T02:39:43.569Z,14.70
2022-10-30T02:42:13.937Z,14.70
2022-10-30T02:44:44.921Z,14.70
2022-10-30T02:47:13.503Z,14.70
2022-10-30T02:49:44.656Z,14.70
2022-10-30T02:52:15.236Z,14.70
2022-10-30T02:54:45.477Z,14.70
2022-10-30T02:57:14.188Z,14.70
2022-10-30T02:59:42.636Z,14.70
2022-10-30T03:02:10.908Z,14.70
2022-10-30T03:04:40.231Z,14.70
2022-10-30T03:07:08.785Z,14.70
2022-10-30T03:09:38.432Z,14.70
2022-10-30T03:12:07.096Z,14.80
2022-10-30T03:14:36.331Z,14.80
2022-10-30T03:17:04.708Z,14.80
2022-10-30T03:19:33.516Z,14.80
2022-10-30T03:22:02.576Z,14.80
2022-10-30T03:24:31.001Z,14.70
2022-10-30T03:27:01.265Z,14.80
2022-10-30T03:29:30.509Z,14.80
2022-10-30T03:31:58.687Z,14.70
2022-10-30T03:34:30.289Z,14.70
2022-10-30T03:36:58.484Z,14.70
2022-10-30T03:39:27.908Z,14.80
2022-10-30T03:42:00.730Z,14.70
2022-10-30T03:44:31.138Z,14.60
2022-10-30T03:47:00.179Z,14.60
2022-10-30T03:49:49.761Z,14.60
2022-10-30T03:52:27.830Z,14.60
2022-10-30T03:54:56.344Z,14.60
2022-10-30T03:57:25.034Z,14.60
2022-10-30T03:59:56.843Z,14.60
2022-10-30T04:02:28.164Z,14.70
2022-10-30T04:04:57.868Z,14.60
2022-10-30T04:07:26.871Z,14.60
2022-10-30T04:09:55.108Z,14.60
2022-10-30T04:12:23.487Z,14.60
2022-10-30T04:14:55.160Z,14.70
2022-10-30T04:17:23.396Z,14.60
2022-10-30T04:20:25.172Z,14.60
2022-10-30T04:22:58.671Z,14.60
2022-10-30T04:25:27.496Z,14.60
2022-10-30T04:27:56.058Z,14.70
2022-10-30T04:30:39.583Z,14.60
2022-10-30T04:33:18.346Z,14.60
2022-10-30T04:38:55.714Z,14.60
2022-10-30T04:52:49.273Z,14.20
2022-10-30T04:55:35.865Z,14.20
2022-10-30T04:58:06.227Z,14.20
2022-10-30T05:00:37.548Z,14.20
2022-10-30T05:03:36.216Z,14.20
2022-10-30T05:09:03.718Z,14.20
2022-10-30T05:11:40.174Z,14.20
2022-10-30T05:14:17.839Z,14.20
2022-10-30T05:16:55.677Z,14.20
2022-10-30T05:19:34.052Z,14.30
2022-10-30T05:22:07.758Z,14.20
2022-10-30T05:24:43.491Z,14.20
2022-10-30T05:27:23.258Z,14.20
2022-10-30T05:30:14.658Z,14.20
2022-10-30T05:32:49.845Z,14.20
2022-10-30T05:35:36.119Z,14.20
2022-10-30T05:38:13.923Z,14.10
2022-10-30T05:41:35.764Z,14.10
2022-10-30T05:44:47.307Z,14.10
2022-10-30T05:47:15.041Z,14.00
2022-10-30T05:49:43.334Z,14.10
2022-10-30T05:52:13.597Z,14.10
2022-10-30T05:54:41.803Z,14.10
2022-10-30T05:57:10.243Z,14.10
2022-10-30T05:59:38.531Z,14.10
2022-10-30T06:02:06.742Z,14.10
2022-10-30T06:04:35.090Z,14.10
2022-10-30T06:07:03.320Z,14.10
2022-10-30T06:09:33.199Z,14.10
2022-10-30T06:12:01.729Z,14.10
2022-10-30T06:14:30.282Z,14.00
2022-10-30T06:16:58.579Z,14.00
2022-10-30T06:19:26.880Z,14.00
2022-10-30T06:21:55.545Z,13.90
2022-10-30T06:24:23.702Z,13.90
2022-10-30T06:26:53.474Z,13.90
2022-10-30T06:29:21.748Z,13.90
2022-10-30T06:31:50.007Z,13.90
2022-10-30T06:34:18.240Z,13.90
2022-10-30T06:36:46.746Z,13.90
2022-10-30T06:39:14.893Z,13.90
2022-10-30T06:41:43.250Z,13.90
2022-10-30T06:44:14.798Z,14.00
2022-10-30T06:46:43.331Z,14.00
2022-10-30T06:49:11.549Z,14.00
2022-10-30T06:51:40.105Z,14.00
2022-10-30T06:54:10.028Z,14.00
2022-10-30T06:56:38.159Z,14.00
2022-10-30T06:59:06.605Z,14.00
2022-10-30T07:01:44.209Z,13.90
2022-10-30T07:04:12.470Z,13.90
2022-10-30T07:06:41.066Z,13.90
2022-10-30T07:09:09.301Z,13.90
2022-10-30T07:11:37.919Z,13.80
2022-10-30T07:14:05.994Z,13.80
2022-10-30T07:16:34.246Z,13.80
2022-10-30T07:19:04.966Z,13.90
2022-10-30T07:21:33.188Z,13.90
2022-10-30T07:24:01.144Z,14.00
2022-10-30T07:26:29.390Z,14.10
2022-10-30T07:28:57.693Z,14.20
2022-10-30T07:31:41.517Z,14.20
2022-10-30T07:34:12.280Z,14.30
2022-10-30T07:36:40.631Z,14.50
2022-10-30T07:39:11.385Z,14.60
2022-10-30T07:41:39.509Z,14.80
2022-10-30T07:44:08.323Z,15.00
2022-10-30T07:46:36.434Z,15.20
2022-10-30T07:49:04.480Z,15.30
2022-10-30T07:51:34.231Z,15.20
2022-10-30T07:54:02.301Z,15.20
2022-10-30T07:56:30.352Z,15.40
2022-10-30T07:58:58.610Z,15.60
2022-10-30T08:01:26.832Z,15.80
2022-10-30T08:03:55.324Z,16.00
2022-10-30T08:06:27.085Z,16.10
2022-10-30T08:08:57.592Z,16.30
2022-10-30T08:11:25.707Z,16.40
2022-10-30T08:13:54.403Z,16.50
2022-10-30T08:16:22.820Z,16.60
2022-10-30T08:18:51.030Z,16.70
2022-10-30T08:21:20.968Z,16.80
2022-10-30T08:23:49.344Z,17.00
2022-10-30T08:26:19.505Z,17.10
2022-10-30T08:28:47.874Z,17.10
2022-10-30T08:31:15.931Z,17.10
2022-10-30T08:33:44.105Z,17.10
2022-10-30T08:36:12.352Z,17.00
2022-10-30T08:38:40.902Z,17.10
2022-10-30T08:41:09.157Z,17.10
2022-10-30T08:43:41.602Z,17.20
2022-10-30T08:46:10.208Z,17.30
2022-10-30T08:48:38.401Z,17.40
2022-10-30T08:51:07.400Z,17.60
2022-10-30T08:53:35.924Z,17.60
2022-10-30T08:56:05.309Z,17.70
2022-10-30T08:58:33.557Z,17.70
2022-10-30T09:01:03.504Z,17.80
2022-10-30T09:03:31.910Z,17.80
2022-10-30T09:06:02.406Z,17.80
2022-10-30T09:08:30.949Z,17.70
2022-10-30T09:10:59.854Z,17.70
2022-10-30T09:13:28.193Z,17.70
2022-10-30T09:16:00.772Z,17.70
2022-10-30T09:18:31.736Z,17.80
2022-10-30T09:21:03.136Z,17.70
2022-10-30T09:23:33.458Z,17.90
2022-10-30T09:26:02.621Z,18.00
2022-10-30T09:28:30.860Z,18.10
2022-10-30T09:30:59.670Z,18.20
2022-10-30T09:33:29.378Z,18.30
2022-10-30T09:35:57.362Z,18.40
2022-10-30T09:38:25.584Z,18.40
2022-10-30T09:41:24.790Z,18.40
2022-10-30T09:44:05.631Z,18.50
2022-10-30T09:46:45.544Z,18.70
2022-10-30T09:49:34.232Z,18.70
2022-10-30T09:52:16.735Z,18.80
2022-10-30T09:54:56.767Z,19.00
2022-10-30T09:57:32.323Z,19.20
2022-10-30T10:00:10.498Z,19.20
2022-10-30T10:02:41.423Z,19.30
2022-10-30T10:05:19.184Z,19.40
2022-10-30T10:07:50.515Z,19.40
2022-10-30T10:10:23.752Z,19.40
2022-10-30T10:13:00.197Z,19.40
2022-10-30T10:15:37.792Z,19.40
2022-10-30T10:18:13.922Z,19.50
2022-10-30T10:20:46.798Z,19.70
2022-10-30T10:23:19.783Z,19.70
2022-10-30T10:25:54.539Z,19.80
2022-10-30T10:28:45.923Z,19.90
2022-10-30T10:31:24.830Z,20.00
2022-10-30T10:34:07.935Z,20.10
2022-10-30T10:36:50.927Z,20.10
2022-10-30T10:39:32.428Z,20.00
2022-10-30T10:42:10.109Z,20.10
2022-10-30T10:44:50.045Z,20.10
2022-10-30T10:47:46.783Z,20.20
2022-10-30T10:50:23.055Z,20.30
2022-10-30T10:52:58.863Z,20.30
2022-10-30T10:55:31.308Z,20.40
2022-10-30T10:58:08.793Z,20.50
2022-10-30T11:00:37.510Z,20.60
2022-10-30T11:03:10.729Z,20.60
2022-10-30T11:05:44.064Z,20.70
2022-10-30T11:08:18.586Z,20.70
2022-10-30T11:10:48.093Z,20.80
2022-10-30T11:13:16.593Z,20.80
2022-10-30T11:15:54.854Z,20.80
2022-10-30T11:18:23.116Z,20.80
2022-10-30T11:21:00.938Z,20.80
2022-10-30T11:23:40.241Z,20.70
2022-10-30T11:26:32.179Z,20.80
2022-10-30T11:29:05.888Z,20.80
2022-10-30T11:31:37.957Z,20.90
2022-10-30T11:34:26.627Z,21.00
2022-10-30T11:36:55.970Z,21.00
2022-10-30T11:39:27.152Z,21.10
2022-10-30T11:42:14.636Z,21.00
2022-10-30T11:44:43.942Z,21.00
2022-10-30T11:47:15.759Z,20.90
2022-10-30T11:49:48.629Z,20.90
2022-10-30T11:52:20.707Z,20.90
2022-10-30T11:54:54.369Z,20.90
2022-10-30T11:57:25.462Z,20.90
2022-10-30T12:00:00.579Z,20.90
2022-10-30T12:02:42.200Z,20.80
2022-10-30T12:05:34.904Z,20.80
2022-10-30T12:08:21.339Z,20.70
2022-10-30T12:10:59.725Z,20.70
2022-10-30T12:13:29.319Z,20.60
2022-10-30T12:16:16.732Z,20.60
2022-10-30T12:18:58.348Z,20.50
2022-10-30T12:21:32.650Z,20.40
2022-10-30T12:24:09.402Z,20.40
2022-10-30T12:26:40.848Z,20.40
2022-10-30T12:29:16.107Z,20.40
2022-10-30T12:31:48.284Z,20.40
2022-10-30T12:34:35.961Z,20.40
2022-10-30T12:37:12.377Z,20.30
2022-10-30T12:39:50.813Z,20.20
2022-10-30T12:42:23.158Z,20.20
2022-10-30T12:44:56.478Z,20.30
2022-10-30T12:47:30.983Z,20.30
2022-10-30T12:52:36.707Z,20.30
2022-10-30T12:55:11.345Z,20.30
2022-10-30T12:57:49.655Z,20.40
2022-10-30T13:00:18.355Z,20.40
2022-10-30T13:02:58.297Z,20.40
2022-10-30T13:05:34.295Z,20.30
2022-10-30T13:08:18.717Z,20.40
2022-10-30T13:10:50.343Z,20.40
2022-10-30T13:13:23.163Z,20.40
2022-10-30T13:15:54.343Z,20.20
2022-10-30T13:18:24.635Z,20.30
2022-10-30T13:21:10.925Z,20.30
2022-10-30T13:23:50.697Z,20.30
2022-10-30T13:26:28.648Z,20.20
2022-10-30T13:29:07.176Z,20.10
2022-10-30T13:31:48.986Z,20.10
2022-10-30T13:34:29.688Z,20.00
2022-10-30T13:37:05.736Z,20.00
2022-10-30T13:39:40.344Z,20.00
2022-10-30T13:42:23.338Z,20.00
2022-10-30T13:45:03.082Z,20.00
2022-10-30T13:47:39.867Z,19.90
2022-10-30T13:50:27.482Z,19.80
2022-10-30T13:53:00.703Z,19.80
2022-10-30T13:55:32.543Z,19.80
2022-10-30T13:58:14.389Z,19.70
2022-10-30T14:01:01.826Z,19.70
2022-10-30T14:03:43.249Z,19.60
2022-10-30T14:06:16.900Z,19.50
2022-10-30T14:08:51.790Z,19.50
2022-10-30T14:11:20.254Z,19.50
2022-10-30T14:13:55.209Z,19.50
2022-10-30T14:16:46.103Z,19.40
2022-10-30T14:19:15.756Z,19.40
2022-10-30T14:21:56.749Z,19.40
2022-10-30T14:24:28.524Z,19.40
2022-10-30T14:27:10.987Z,19.50
2022-10-30T14:29:50.034Z,19.40
2022-10-30T14:32:37.279Z,19.40
2022-10-30T14:35:38.838Z,19.40
2022-10-30T14:38:28.023Z,19.30
2022-10-30T14:41:25.926Z,19.30
2022-10-30T14:44:12.807Z,19.30
2022-10-30T14:46:51.171Z,19.30
2022-10-30T14:49:58.492Z,19.20
2022-10-30T14:52:44.664Z,19.20
2022-10-30T14:55:26.346Z,19.10
2022-10-30T14:58:22.959Z,19.10
2022-10-30T15:00:58.240Z,19.10
2022-10-30T15:03:44.493Z,19.10
2022-10-30T15:06:37.234Z,19.10
2022-10-30T15:13:21.770Z,19.10
2022-10-30T15:15:59.444Z,19.00
2022-10-30T15:18:30.737Z,19.10
2022-10-30T15:21:06.037Z,19.10
2022-10-30T15:23:38.311Z,19.10
2022-10-30T15:26:10.073Z,19.10
2022-10-30T15:28:40.379Z,19.00
2022-10-30T15:31:23.416Z,19.00
2022-10-30T15:33:51.897Z,18.90
2022-10-30T15:36:22.660Z,19.00
2022-10-30T15:39:08.812Z,19.20
2022-10-30T15:41:43.773Z,19.20
2022-10-30T15:44:13.257Z,19.20
2022-10-30T15:46:42.037Z,19.10
2022-10-30T15:49:13.299Z,19.10
2022-10-30T15:51:49.928Z,19.10
2022-10-30T15:54:25.844Z,19.10
2022-10-30T15:57:36.513Z,19.10
2022-10-30T15:59:52.186Z,19.00
2022-10-30T16:02:33.092Z,19.00
2022-10-30T16:05:01.524Z,19.00
2022-10-30T16:07:31.655Z,18.90
2022-10-30T16:10:02.911Z,18.80
2022-10-30T16:12:33.784Z,18.70
2022-10-30T16:15:07.371Z,18.60
2022-10-30T16:17:36.515Z,18.60
2022-10-30T16:23:40.316Z,18.50
2022-10-30T16:26:47.126Z,18.40
2022-10-30T16:29:41.511Z,18.40
2022-10-30T16:34:44.202Z,18.30
2022-10-30T16:37:19.691Z,18.30
2022-10-30T16:39:53.026Z,18.30
2022-10-30T16:42:24.512Z,18.30
2022-10-30T16:44:54.347Z,18.30
2022-10-30T16:47:26.824Z,18.30
2022-10-30T16:49:57.600Z,18.20
2022-10-30T16:52:33.279Z,18.20
2022-10-30T16:55:03.318Z,18.10
2022-10-30T16:57:36.314Z,18.00
2022-10-30T17:00:07.314Z,17.90
2022-10-30T17:02:38.275Z,17.90
2022-10-30T17:05:17.730Z,17.90
2022-10-30T17:07:56.016Z,17.90
2022-10-30T17:10:33.812Z,17.70
2022-10-30T17:13:35.336Z,17.70
2022-10-30T17:16:24.980Z,17.60
2022-10-30T17:18:55.337Z,17.50
2022-10-30T17:21:26.530Z,17.40
2022-10-30T17:23:57.934Z,17.40
2022-10-30T17:26:28.666Z,17.40
2022-10-30T17:28:57.047Z,17.40
2022-10-30T17:31:43.627Z,17.30
2022-10-30T17:34:17.786Z,17.30
2022-10-30T17:36:46.889Z,17.20
2022-10-30T17:39:21.630Z,17.20
2022-10-30T17:42:11.640Z,17.20
2022-10-30T17:44:43.697Z,17.20
2022-10-30T17:47:17.746Z,17.20
2022-10-30T17:49:46.829Z,17.20
2022-10-30T17:52:16.799Z,17.20
2022-10-30T17:54:45.819Z,17.10
2022-10-30T17:57:16.047Z,17.10
2022-10-30T17:59:44.872Z,17.10
2022-10-30T18:02:17.969Z,17.10
2022-10-30T18:04:47.785Z,17.10
2022-10-30T18:07:17.900Z,17.10
2022-10-30T18:09:47.178Z,17.10
2022-10-30T18:12:18.013Z,17.10
2022-10-30T18:14:46.932Z,17.00
2022-10-30T18:17:17.816Z,17.00
2022-10-30T18:19:46.297Z,17.00
2022-10-30T18:22:14.817Z,17.00
2022-10-30T18:24:43.157Z,17.00
2022-10-30T18:27:11.630Z,16.90
2022-10-30T18:29:42.352Z,16.90
2022-10-30T18:34:58.064Z,16.90
2022-10-30T18:37:26.351Z,16.90
2022-10-30T18:39:54.680Z,16.90
2022-10-30T18:42:23.394Z,16.80
2022-10-30T18:44:51.439Z,16.90
2022-10-30T18:47:19.510Z,16.80
2022-10-30T18:49:48.017Z,16.60
2022-10-30T18:52:17.993Z,16.50
2022-10-30T18:54:46.264Z,16.50
2022-10-30T18:57:15.799Z,16.50
2022-10-30T18:59:43.783Z,16.50
2022-10-30T19:02:21.947Z,16.50
2022-10-30T19:04:51.685Z,16.50
2022-10-30T19:07:21.386Z,16.50
2022-10-30T19:09:49.681Z,16.60
2022-10-30T19:12:18.312Z,16.50
2022-10-30T19:14:46.797Z,16.50
2022-10-30T19:17:15.211Z,16.50
2022-10-30T19:19:43.459Z,16.50
2022-10-30T19:22:15.066Z,16.40
2022-10-30T19:24:45.000Z,16.40
2022-10-30T19:27:13.287Z,16.40
2022-10-30T19:29:41.706Z,16.30
2022-10-30T19:32:09.968Z,16.10
2022-10-30T19:34:38.071Z,16.10
2022-10-30T19:37:06.460Z,16.10
2022-10-30T19:39:34.436Z,16.10
2022-10-30T19:42:04.287Z,16.10
2022-10-30T19:44:32.556Z,16.00
2022-10-30T19:47:00.838Z,15.90
2022-10-30T19:49:29.333Z,15.90
2022-10-30T19:51:57.527Z,15.90
2022-10-30T19:54:25.921Z,15.90
2022-10-30T19:56:54.013Z,15.90
2022-10-30T19:59:24.322Z,15.90
2022-10-30T20:01:52.961Z,15.90
2022-10-30T20:04:21.485Z,15.90
2022-10-30T20:06:49.775Z,15.90
2022-10-30T20:09:18.260Z,15.90
2022-10-30T20:11:47.487Z,15.90
2022-10-30T20:14:15.713Z,15.90
2022-10-30T20:16:45.450Z,15.90
2022-10-30T20:19:28.650Z,15.90
2022-10-30T20:21:56.755Z,15.90
2022-10-30T20:24:25.756Z,15.90
2022-10-30T20:26:56.817Z,16.00
2022-10-30T20:29:25.403Z,16.00
2022-10-30T20:31:55.262Z,16.00
2022-10-30T20:34:23.486Z,16.00
2022-10-30T20:36:51.632Z,16.00
2022-10-30T20:39:19.768Z,16.00
2022-10-30T20:41:48.055Z,16.00
2022-10-30T20:44:16.349Z,16.00
2022-10-30T20:46:44.504Z,16.00
2022-10-30T20:49:17.762Z,16.00
2022-10-30T20:51:46.819Z,16.00
2022-10-30T20:54:15.407Z,16.00
2022-10-30T20:56:43.993Z,16.00
2022-10-30T20:59:12.918Z,16.10
2022-10-30T21:01:41.306Z,16.10
2022-10-30T21:04:09.574Z,16.10
2022-10-30T21:06:39.680Z,16.00
2022-10-30T21:09:08.168Z,16.10
2022-10-30T21:11:36.577Z,16.10
2022-10-30T21:14:06.183Z,16.10
2022-10-30T21:16:34.458Z,16.00
2022-10-30T21:19:02.622Z,16.00
2022-10-30T21:21:31.386Z,16.10
2022-10-30T21:24:01.170Z,16.00
2022-10-30T21:26:29.458Z,16.00
2022-10-30T21:28:59.743Z,16.00
2022-10-30T21:31:27.831Z,16.00
2022-10-30T21:33:56.385Z,16.00
2022-10-30T21:36:24.822Z,15.90
2022-10-30T21:38:53.300Z,15.80
2022-10-30T21:41:24.893Z,15.80
2022-10-30T21:43:54.480Z,15.80
2022-10-30T21:46:24.874Z,15.70
2022-10-30T21:48:53.427Z,15.80
2022-10-30T21:51:23.619Z,15.70
2022-10-30T21:53:52.472Z,15.60
2022-10-30T21:56:23.737Z,15.60
2022-10-30T21:58:52.339Z,15.60
2022-10-30T22:01:23.228Z,15.60
2022-10-30T22:03:51.956Z,15.50
2022-10-30T22:06:22.353Z,15.50
2022-10-30T22:08:52.606Z,15.50
2022-10-30T22:11:23.320Z,15.50
2022-10-30T22:13:55.027Z,15.50
2022-10-30T22:16:23.755Z,15.50
2022-10-30T22:18:52.195Z,15.50
2022-10-30T22:21:20.575Z,15.50
2022-10-30T22:23:48.968Z,15.40
2022-10-30T22:26:19.016Z,15.30
2022-10-30T22:28:51.854Z,15.30
2022-10-30T22:31:22.560Z,15.30
2022-10-30T22:33:51.402Z,15.30
2022-10-30T22:36:22.743Z,15.20
2022-10-30T22:38:56.267Z,15.20
2022-10-30T22:41:25.704Z,15.30
2022-10-30T22:43:56.600Z,15.30
2022-10-30T22:46:27.389Z,15.20
2022-10-30T22:48:56.569Z,15.20
2022-10-30T22:51:25.492Z,15.10
2022-10-30T22:53:58.081Z,15.10
2022-10-30T22:56:28.039Z,15.10
2022-10-30T22:58:58.226Z,15.10
2022-10-30T23:01:28.479Z,15.10
2022-10-30T23:03:58.859Z,15.00
2022-10-30T23:06:28.190Z,15.00
2022-10-30T23:09:00.016Z,14.90
2022-10-30T23:11:29.216Z,14.90
2022-10-30T23:13:58.951Z,14.80
2022-10-30T23:16:28.355Z,14.80
2022-10-30T23:18:57.783Z,14.80
2022-10-30T23:21:29.119Z,14.80
2022-10-30T23:23:57.887Z,14.70
2022-10-30T23:26:28.525Z,14.50
2022-10-30T23:28:59.635Z,14.60
2022-10-30T23:31:29.861Z,14.60
2022-10-30T23:34:00.344Z,14.50
2022-10-30T23:36:29.311Z,14.60
2022-10-30T23:38:59.108Z,14.60
2022-10-30T23:41:31.052Z,14.60
2022-10-30T23:44:02.551Z,14.50
2022-10-30T23:46:31.308Z,14.60
2022-10-30T23:48:59.700Z,14.50
2022-10-30T23:51:28.350Z,14.50
2022-10-30T23:53:56.712Z,14.50
2022-10-30T23:56:27.084Z,14.50
2022-10-30T23:58:55.613Z,14.50
